createdAt,value
2023-02-26T00:01:16.788Z,99.90
2023-02-26T00:03:43.683Z,99.90
2023-02-26T00:06:10.459Z,99.90
2023-02-26T00:08:38.714Z,99.90
2023-02-26T00:11:07.190Z,99.90
2023-02-26T00:13:35.538Z,99.90
2023-02-26T00:16:02.600Z,99.80
2023-02-26T00:18:30.045Z,99.90
2023-02-26T00:20:57.361Z,98.80
2023-02-26T00:23:24.502Z,99.00
2023-02-26T00:25:52.561Z,98.60
2023-02-26T00:28:19.804Z,99.00
2023-02-26T00:30:47.103Z,98.30
2023-02-26T00:33:14.228Z,98.00
2023-02-26T00:35:41.493Z,98.30
2023-02-26T00:38:10.643Z,98.40
2023-02-26T00:40:41.285Z,98.00
2023-02-26T00:43:14.710Z,98.40
2023-02-26T00:45:45.304Z,99.50
2023-02-26T00:48:36.110Z,98.40
2023-02-26T00:51:10.832Z,98.00
2023-02-26T00:53:46.856Z,97.70
2023-02-26T00:56:13.917Z,97.30
2023-02-26T00:58:42.127Z,98.10
2023-02-26T01:01:08.856Z,98.10
2023-02-26T01:03:36.263Z,97.80
2023-02-26T01:06:03.486Z,98.90
2023-02-26T01:08:34.083Z,96.90
2023-02-26T01:11:01.206Z,97.80
2023-02-26T01:13:28.321Z,97.90
2023-02-26T01:16:05.097Z,96.60
2023-02-26T01:18:39.290Z,97.10
2023-02-26T01:21:10.859Z,96.90
2023-02-26T01:23:43.484Z,97.10
2023-02-26T01:26:14.608Z,96.50
2023-02-26T01:28:41.818Z,96.70
2023-02-26T01:31:26.253Z,95.60
2023-02-26T01:33:59.562Z,95.60
2023-02-26T01:36:31.050Z,95.40
2023-02-26T01:39:03.013Z,95.10
2023-02-26T01:41:33.120Z,95.60
2023-02-26T01:44:10.312Z,94.70
2023-02-26T01:47:03.515Z,94.90
2023-02-26T01:49:30.814Z,94.20
2023-02-26T01:51:59.317Z,94.30
2023-02-26T01:54:29.750Z,94.10
2023-02-26T01:57:00.882Z,93.70
2023-02-26T01:59:27.755Z,94.10
2023-02-26T02:01:58.254Z,94.20
2023-02-26T02:04:25.904Z,94.10
2023-02-26T02:06:53.581Z,94.40
2023-02-26T02:09:20.776Z,94.30
2023-02-26T02:12:06.653Z,94.80
2023-02-26T02:14:46.190Z,94.90
2023-02-26T02:17:19.390Z,94.10
2023-02-26T02:20:11.961Z,94.70
2023-02-26T02:22:56.445Z,95.00
2023-02-26T02:25:45.839Z,94.70
2023-02-26T02:28:21.613Z,94.70
2023-02-26T02:31:04.982Z,94.60
2023-02-26T02:33:36.593Z,94.10
2023-02-26T02:36:09.372Z,94.20
2023-02-26T02:38:44.590Z,94.50
2023-02-26T02:41:17.240Z,94.50
2023-02-26T02:43:45.262Z,94.80
2023-02-26T02:46:18.247Z,94.80
2023-02-26T02:48:49.984Z,94.50
2023-02-26T02:51:21.416Z,93.80
2023-02-26T02:53:51.049Z,93.80
2023-02-26T02:56:24.022Z,94.40
2023-02-26T02:58:55.134Z,93.60
2023-02-26T03:01:26.025Z,93.90
2023-02-26T03:03:58.009Z,93.50
2023-02-26T03:06:24.960Z,93.50
2023-02-26T03:08:53.055Z,93.40
2023-02-26T03:11:20.590Z,93.40
2023-02-26T03:13:48.948Z,93.60
2023-02-26T03:16:35.088Z,93.10
2023-02-26T03:19:11.741Z,93.30
2023-02-26T03:21:46.894Z,92.90
2023-02-26T03:24:18.616Z,93.00
2023-02-26T03:26:50.973Z,92.90
2023-02-26T03:29:27.500Z,93.00
2023-02-26T03:31:59.216Z,92.90
2023-02-26T03:34:30.328Z,92.70
2023-02-26T03:37:01.106Z,92.90
2023-02-26T03:39:31.562Z,92.40
2023-02-26T03:42:01.722Z,92.00
2023-02-26T03:44:32.142Z,92.20
2023-02-26T03:47:06.278Z,92.30
2023-02-26T03:49:38.042Z,92.60
2023-02-26T03:52:06.120Z,92.40
2023-02-26T03:54:38.455Z,92.60
2023-02-26T03:57:05.343Z,92.50
2023-02-26T03:59:33.011Z,92.70
2023-02-26T04:02:04.319Z,92.50
2023-02-26T04:04:37.442Z,92.80
2023-02-26T04:07:04.253Z,92.70
2023-02-26T04:09:31.326Z,92.40
2023-02-26T04:11:58.999Z,92.30
2023-02-26T04:14:25.901Z,92.50
2023-02-26T04:16:52.699Z,92.00
2023-02-26T04:19:20.782Z,91.90
2023-02-26T04:21:47.576Z,92.30
2023-02-26T04:24:14.373Z,92.30
2023-02-26T04:26:41.076Z,92.00
2023-02-26T04:29:07.786Z,92.60
2023-02-26T04:31:34.580Z,91.80
2023-02-26T04:34:01.312Z,91.90
2023-02-26T04:36:29.795Z,91.90
2023-02-26T04:38:56.836Z,91.70
2023-02-26T04:41:23.564Z,91.50
2023-02-26T04:43:50.294Z,91.40
2023-02-26T04:46:17.058Z,91.30
2023-02-26T04:48:44.087Z,91.70
2023-02-26T04:51:10.820Z,91.00
2023-02-26T04:53:39.013Z,91.00
2023-02-26T04:56:06.136Z,91.50
2023-02-26T04:58:33.054Z,91.20
2023-02-26T05:00:59.769Z,91.40
2023-02-26T05:03:26.781Z,91.20
2023-02-26T05:05:53.714Z,91.20
2023-02-26T05:08:20.431Z,91.30
2023-02-26T05:10:48.556Z,91.20
2023-02-26T05:13:15.378Z,91.50
2023-02-26T05:15:42.127Z,91.40
2023-02-26T05:18:08.972Z,91.50
2023-02-26T05:20:35.708Z,91.50
2023-02-26T05:23:02.404Z,91.70
2023-02-26T05:25:29.497Z,91.50
2023-02-26T05:27:57.571Z,91.50
2023-02-26T05:30:24.360Z,91.50
2023-02-26T05:32:51.103Z,91.50
2023-02-26T05:35:17.986Z,91.30
2023-02-26T05:37:44.748Z,91.30
2023-02-26T05:40:12.469Z,91.20
2023-02-26T05:42:39.649Z,91.30
2023-02-26T05:45:09.128Z,91.20
2023-02-26T05:47:36.601Z,91.30
2023-02-26T05:50:04.031Z,91.40
2023-02-26T05:52:30.822Z,91.40
2023-02-26T05:54:57.536Z,91.70
2023-02-26T05:57:24.640Z,91.40
2023-02-26T05:59:51.490Z,91.30
2023-02-26T06:02:19.656Z,91.50
2023-02-26T06:04:46.562Z,91.40
2023-02-26T06:07:13.440Z,91.50
2023-02-26T06:09:40.213Z,91.40
2023-02-26T06:12:07.552Z,91.50
2023-02-26T06:14:34.690Z,91.30
2023-02-26T06:17:01.659Z,91.20
2023-02-26T06:19:29.728Z,91.10
2023-02-26T06:21:56.637Z,91.30
2023-02-26T06:24:23.404Z,91.10
2023-02-26T06:26:50.172Z,91.60
2023-02-26T06:29:16.915Z,91.70
2023-02-26T06:31:43.785Z,91.60
2023-02-26T06:34:10.848Z,91.70
2023-02-26T06:36:39.146Z,91.30
2023-02-26T06:39:06.208Z,91.50
2023-02-26T06:41:32.959Z,91.70
2023-02-26T06:43:59.687Z,91.70
2023-02-26T06:46:26.664Z,91.60
2023-02-26T06:48:53.589Z,91.70
2023-02-26T06:51:20.277Z,91.40
2023-02-26T06:53:48.352Z,91.40
2023-02-26T06:56:15.058Z,91.10
2023-02-26T06:58:41.830Z,91.10
2023-02-26T07:01:08.610Z,91.10
2023-02-26T07:03:35.314Z,91.30
2023-02-26T07:06:23.719Z,91.20
2023-02-26T07:08:50.109Z,91.20
2023-02-26T07:11:16.826Z,91.10
2023-02-26T07:13:43.708Z,90.90
2023-02-26T07:16:10.420Z,90.90
2023-02-26T07:18:37.865Z,90.80
2023-02-26T07:21:05.451Z,90.70
2023-02-26T07:23:32.216Z,90.80
2023-02-26T07:26:00.284Z,90.60
2023-02-26T07:28:27.057Z,91.00
2023-02-26T07:30:54.463Z,91.00
2023-02-26T07:33:21.397Z,91.00
2023-02-26T07:35:48.793Z,90.90
2023-02-26T07:38:16.317Z,90.60
2023-02-26T07:40:46.988Z,90.50
2023-02-26T07:43:18.679Z,90.80
2023-02-26T07:45:50.424Z,90.60
2023-02-26T07:48:19.092Z,90.60
2023-02-26T07:50:46.615Z,90.60
2023-02-26T07:53:14.789Z,91.30
2023-02-26T07:55:47.656Z,91.60
2023-02-26T07:58:16.883Z,91.40
2023-02-26T08:00:46.013Z,91.10
2023-02-26T08:03:14.064Z,90.90
2023-02-26T08:05:42.391Z,91.10
2023-02-26T08:08:10.590Z,90.90
2023-02-26T08:10:42.019Z,91.00
2023-02-26T08:15:52.750Z,92.70
2023-02-26T08:18:21.575Z,92.30
2023-02-26T08:20:59.578Z,92.40
2023-02-26T08:23:27.369Z,92.30
2023-02-26T08:26:02.028Z,93.50
2023-02-26T08:28:29.303Z,92.50
2023-02-26T08:30:58.148Z,92.30
2023-02-26T08:33:25.858Z,92.20
2023-02-26T08:35:53.875Z,92.60
2023-02-26T08:38:24.340Z,92.00
2023-02-26T08:40:56.795Z,92.00
2023-02-26T08:43:25.481Z,92.10
2023-02-26T08:45:58.588Z,92.10
2023-02-26T08:48:28.296Z,91.90
2023-02-26T08:51:01.145Z,92.10
2023-02-26T08:53:28.694Z,91.90
2023-02-26T08:55:56.399Z,91.80
2023-02-26T08:58:24.430Z,91.70
2023-02-26T09:00:52.751Z,91.50
2023-02-26T09:03:22.361Z,91.50
2023-02-26T09:05:51.916Z,91.70
2023-02-26T09:08:19.564Z,91.40
2023-02-26T09:10:47.463Z,91.40
2023-02-26T09:13:17.178Z,91.50
2023-02-26T09:15:44.675Z,91.60
2023-02-26T09:18:12.552Z,91.60
2023-02-26T09:20:41.218Z,91.70
2023-02-26T09:23:08.193Z,91.60
2023-02-26T09:25:34.933Z,91.60
2023-02-26T09:28:01.833Z,91.60
2023-02-26T09:30:28.674Z,91.70
2023-02-26T09:32:55.379Z,92.00
2023-02-26T09:35:22.136Z,92.00
2023-02-26T09:37:50.384Z,92.10
2023-02-26T09:40:25.750Z,91.70
2023-02-26T09:43:11.018Z,91.80
2023-02-26T09:45:41.150Z,92.00
2023-02-26T09:48:12.250Z,92.00
2023-02-26T09:50:42.260Z,92.20
2023-02-26T09:53:17.224Z,92.10
2023-02-26T09:55:46.265Z,92.00
2023-02-26T09:58:20.254Z,92.20
2023-02-26T10:00:53.526Z,91.80
2023-02-26T10:03:27.920Z,92.20
2023-02-26T10:06:17.214Z,91.90
2023-02-26T10:08:54.963Z,92.20
2023-02-26T10:11:29.164Z,92.00
2023-02-26T10:14:02.015Z,92.20
2023-02-26T10:16:33.431Z,92.10
2023-02-26T10:19:05.897Z,92.00
2023-02-26T10:21:37.776Z,92.10
2023-02-26T10:24:11.260Z,92.30
2023-02-26T10:26:41.586Z,92.10
2023-02-26T10:29:17.758Z,92.00
2023-02-26T10:32:00.475Z,92.10
2023-02-26T10:34:31.734Z,91.90
2023-02-26T10:37:04.420Z,92.80
2023-02-26T10:39:38.257Z,93.40
2023-02-26T10:42:13.522Z,92.70
2023-02-26T10:44:47.177Z,93.00
2023-02-26T10:47:35.340Z,93.10
2023-02-26T10:50:04.619Z,92.50
2023-02-26T10:52:33.679Z,92.20
2023-02-26T10:55:23.974Z,92.60
2023-02-26T10:57:56.691Z,92.60
2023-02-26T11:00:23.573Z,92.70
2023-02-26T11:02:53.134Z,92.50
2023-02-26T11:05:22.489Z,92.30
2023-02-26T11:07:53.621Z,92.50
2023-02-26T11:10:24.930Z,92.90
2023-02-26T11:12:52.263Z,92.60
2023-02-26T11:15:21.553Z,92.30
2023-02-26T11:17:49.871Z,91.70
2023-02-26T11:20:30.367Z,91.70
2023-02-26T11:22:59.709Z,92.10
2023-02-26T11:25:31.978Z,91.30
2023-02-26T11:28:02.538Z,91.00
2023-02-26T11:30:32.759Z,91.00
2023-02-26T11:33:07.074Z,90.90
2023-02-26T11:35:34.040Z,90.90
2023-02-26T11:38:02.535Z,90.70
2023-02-26T11:40:35.888Z,90.40
2023-02-26T11:43:06.072Z,90.80
2023-02-26T11:45:35.551Z,90.00
2023-02-26T11:48:06.401Z,90.80
2023-02-26T11:50:42.931Z,91.10
2023-02-26T11:53:17.769Z,90.60
2023-02-26T11:55:47.236Z,90.40
2023-02-26T11:58:18.888Z,89.80
2023-02-26T12:00:45.594Z,90.00
2023-02-26T12:03:17.509Z,89.20
2023-02-26T12:05:44.433Z,89.90
2023-02-26T12:08:18.572Z,90.10
2023-02-26T12:10:58.683Z,88.60
2023-02-26T12:13:35.130Z,90.20
2023-02-26T12:16:11.896Z,88.80
2023-02-26T12:18:50.070Z,87.60
2023-02-26T12:21:30.371Z,89.70
2023-02-26T12:24:16.071Z,89.70
2023-02-26T12:26:54.112Z,89.00
2023-02-26T12:29:47.729Z,90.00
2023-02-26T12:32:46.663Z,91.00
2023-02-26T12:35:53.855Z,90.40
2023-02-26T12:38:28.714Z,90.70
2023-02-26T12:41:24.779Z,91.30
2023-02-26T12:43:55.991Z,90.60
2023-02-26T12:46:43.318Z,90.70
2023-02-26T12:49:35.455Z,90.20
2023-02-26T12:52:18.988Z,90.10
2023-02-26T12:54:59.284Z,90.10
2023-02-26T12:57:58.809Z,90.00
2023-02-26T13:00:42.880Z,89.50
2023-02-26T13:03:54.636Z,88.70
2023-02-26T13:06:50.925Z,89.50
2023-02-26T13:09:31.023Z,88.80
2023-02-26T13:12:07.177Z,88.30
2023-02-26T13:14:43.768Z,90.00
2023-02-26T13:17:18.774Z,89.90
2023-02-26T13:19:48.902Z,89.10
2023-02-26T13:22:20.556Z,90.00
2023-02-26T13:24:53.672Z,88.20
2023-02-26T13:27:25.369Z,89.30
2023-02-26T13:30:01.651Z,87.80
2023-02-26T13:32:31.197Z,88.70
2023-02-26T13:35:00.339Z,87.70
2023-02-26T13:37:31.453Z,87.90
2023-02-26T13:40:23.136Z,88.80
2023-02-26T13:42:57.501Z,86.40
2023-02-26T13:45:37.905Z,86.60
2023-02-26T13:48:16.065Z,87.80
2023-02-26T13:50:52.423Z,87.30
2023-02-26T13:53:36.499Z,85.90
2023-02-26T13:56:13.198Z,87.40
2023-02-26T13:58:42.650Z,87.40
2023-02-26T14:01:14.563Z,85.90
2023-02-26T14:03:47.223Z,86.00
2023-02-26T14:06:37.194Z,86.60
2023-02-26T14:09:06.138Z,85.50
2023-02-26T14:11:46.472Z,85.80
2023-02-26T14:14:23.149Z,85.90
2023-02-26T14:16:54.671Z,85.30
2023-02-26T14:19:32.240Z,84.70
2023-02-26T14:22:14.532Z,86.00
2023-02-26T14:24:51.701Z,86.80
2023-02-26T14:27:30.994Z,87.50
2023-02-26T14:30:03.152Z,86.20
2023-02-26T14:32:32.088Z,84.80
2023-02-26T14:35:05.828Z,86.50
2023-02-26T14:37:34.230Z,86.90
2023-02-26T14:40:06.119Z,87.50
2023-02-26T14:42:38.004Z,91.50
2023-02-26T14:45:17.796Z,90.90
2023-02-26T14:47:45.372Z,90.00
2023-02-26T14:50:15.678Z,90.10
2023-02-26T14:52:52.866Z,88.90
2023-02-26T14:55:44.211Z,89.30
2023-02-26T14:58:29.677Z,88.60
2023-02-26T15:01:19.502Z,87.40
2023-02-26T15:04:06.025Z,89.30
2023-02-26T15:06:52.022Z,88.60
2023-02-26T15:09:23.074Z,87.70
2023-02-26T15:12:20.677Z,87.10
2023-02-26T15:15:01.686Z,84.60
2023-02-26T15:17:47.601Z,87.60
2023-02-26T15:20:23.260Z,86.70
2023-02-26T15:23:11.194Z,86.00
2023-02-26T15:25:41.432Z,87.70
2023-02-26T15:28:18.312Z,87.80
2023-02-26T15:30:48.680Z,86.00
2023-02-26T15:33:15.657Z,87.40
2023-02-26T15:35:43.927Z,87.80
2023-02-26T15:38:12.098Z,87.00
2023-02-26T15:40:39.214Z,86.80
2023-02-26T15:43:08.756Z,88.20
2023-02-26T15:45:38.576Z,87.90
2023-02-26T15:48:08.048Z,87.50
2023-02-26T15:50:38.636Z,86.90
2023-02-26T15:53:08.030Z,87.80
2023-02-26T15:55:38.301Z,88.10
2023-02-26T15:58:07.487Z,87.80
2023-02-26T16:00:36.948Z,88.00
2023-02-26T16:03:03.977Z,87.60
2023-02-26T16:05:31.206Z,89.30
2023-02-26T16:07:58.168Z,92.00
2023-02-26T16:10:32.954Z,99.90
2023-02-26T16:13:02.092Z,97.40
2023-02-26T16:15:32.658Z,97.50
2023-02-26T16:18:01.690Z,96.80
2023-02-26T16:20:32.064Z,95.90
2023-02-26T16:23:03.170Z,94.40
2023-02-26T16:25:34.432Z,94.00
2023-02-26T16:28:04.662Z,93.50
2023-02-26T16:30:34.752Z,92.80
2023-02-26T16:33:02.994Z,92.50
2023-02-26T16:35:34.422Z,91.40
2023-02-26T16:38:11.827Z,90.90
2023-02-26T16:40:41.553Z,91.00
2023-02-26T16:43:47.927Z,91.10
2023-02-26T16:46:16.957Z,90.50
2023-02-26T16:48:49.017Z,91.00
2023-02-26T16:51:21.369Z,90.50
2023-02-26T16:53:52.705Z,90.40
2023-02-26T16:56:23.956Z,90.40
2023-02-26T16:59:05.471Z,90.40
2023-02-26T17:01:36.156Z,90.70
2023-02-26T17:04:04.586Z,90.30
2023-02-26T17:06:31.839Z,90.70
2023-02-26T17:09:00.678Z,90.60
2023-02-26T17:11:29.739Z,90.70
2023-02-26T17:14:13.814Z,90.90
2023-02-26T17:16:40.608Z,91.00
2023-02-26T17:19:07.528Z,91.00
2023-02-26T17:21:44.252Z,91.20
2023-02-26T17:24:16.357Z,91.30
2023-02-26T17:26:43.983Z,91.40
2023-02-26T17:29:18.681Z,91.60
2023-02-26T17:31:45.701Z,91.70
2023-02-26T17:34:12.974Z,91.70
2023-02-26T17:36:40.035Z,91.70
2023-02-26T17:39:06.979Z,91.70
2023-02-26T17:41:33.731Z,91.70
2023-02-26T17:44:00.538Z,91.90
2023-02-26T17:46:28.541Z,92.00
2023-02-26T17:48:55.360Z,92.10
2023-02-26T17:51:22.182Z,92.50
2023-02-26T17:53:49.127Z,92.50
2023-02-26T17:56:20.203Z,92.60
2023-02-26T17:58:47.527Z,92.60
2023-02-26T18:01:14.480Z,92.80
2023-02-26T18:03:42.729Z,92.70
2023-02-26T18:06:11.854Z,92.80
2023-02-26T18:08:38.710Z,92.80
2023-02-26T18:11:05.403Z,92.80
2023-02-26T18:13:33.267Z,92.80
2023-02-26T18:16:00.889Z,92.70
2023-02-26T18:18:27.840Z,92.70
2023-02-26T18:20:56.318Z,92.80
2023-02-26T18:23:23.530Z,92.70
2023-02-26T18:25:52.193Z,92.70
2023-02-26T18:28:22.600Z,93.00
2023-02-26T18:30:50.096Z,93.20
2023-02-26T18:33:17.425Z,93.20
2023-02-26T18:35:46.009Z,93.30
2023-02-26T18:38:15.066Z,93.30
2023-02-26T18:40:42.420Z,93.20
2023-02-26T18:43:09.273Z,93.20
2023-02-26T18:45:36.057Z,93.20
2023-02-26T18:48:03.091Z,93.10
2023-02-26T18:50:30.433Z,93.00
2023-02-26T18:52:57.297Z,93.00
2023-02-26T18:55:25.515Z,93.00
2023-02-26T18:57:52.293Z,93.00
2023-02-26T19:00:20.032Z,92.90
2023-02-26T19:02:46.991Z,92.80
2023-02-26T19:05:14.976Z,93.00
2023-02-26T19:07:41.717Z,92.90
2023-02-26T19:10:12.112Z,93.00
2023-02-26T19:12:40.357Z,93.20
2023-02-26T19:15:08.702Z,93.40
2023-02-26T19:17:35.857Z,93.60
2023-02-26T19:20:03.052Z,93.80
2023-02-26T19:22:29.808Z,94.00
2023-02-26T19:24:56.880Z,94.00
2023-02-26T19:27:23.762Z,93.70
2023-02-26T19:29:51.925Z,93.80
2023-02-26T19:32:19.291Z,94.20
2023-02-26T19:34:46.241Z,94.10
2023-02-26T19:37:12.972Z,94.10
2023-02-26T19:39:40.228Z,94.50
2023-02-26T19:42:07.541Z,94.30
2023-02-26T19:44:34.274Z,94.40
2023-02-26T19:47:02.514Z,94.20
2023-02-26T19:49:29.436Z,94.40
2023-02-26T19:51:56.402Z,94.80
2023-02-26T19:54:23.302Z,94.30
2023-02-26T19:56:50.185Z,94.50
2023-02-26T19:59:17.718Z,94.30
2023-02-26T20:01:44.675Z,94.30
2023-02-26T20:04:12.991Z,94.20
2023-02-26T20:06:39.836Z,94.40
2023-02-26T20:09:06.558Z,94.50
2023-02-26T20:11:34.034Z,94.40
2023-02-26T20:14:00.949Z,94.30
2023-02-26T20:16:27.922Z,94.10
2023-02-26T20:18:54.793Z,94.20
2023-02-26T20:21:23.073Z,94.00
2023-02-26T20:23:49.929Z,93.90
2023-02-26T20:26:17.456Z,93.70
2023-02-26T20:28:44.333Z,93.50
2023-02-26T20:31:11.732Z,93.50
2023-02-26T20:33:38.712Z,93.50
2023-02-26T20:36:07.095Z,93.20
2023-02-26T20:38:35.521Z,92.80
2023-02-26T20:41:02.786Z,92.90
2023-02-26T20:43:29.512Z,92.50
2023-02-26T20:45:56.441Z,92.40
2023-02-26T20:48:23.707Z,92.20
2023-02-26T20:50:50.753Z,92.30
2023-02-26T20:53:17.445Z,92.20
2023-02-26T20:55:45.447Z,92.10
2023-02-26T20:58:12.422Z,91.80
2023-02-26T21:00:39.126Z,91.90
2023-02-26T21:03:05.939Z,92.20
2023-02-26T21:05:32.656Z,91.90
2023-02-26T21:07:59.333Z,91.90
2023-02-26T21:10:26.560Z,92.40
2023-02-26T21:12:54.704Z,92.40
2023-02-26T21:15:21.456Z,92.10
2023-02-26T21:17:48.221Z,91.80
2023-02-26T21:20:15.143Z,91.90
2023-02-26T21:22:42.056Z,91.90
2023-02-26T21:25:09.709Z,91.80
2023-02-26T21:27:36.427Z,91.80
2023-02-26T21:30:05.982Z,91.90
2023-02-26T21:32:32.806Z,91.80
2023-02-26T21:34:59.510Z,91.80
2023-02-26T21:37:27.021Z,91.70
2023-02-26T21:39:53.904Z,91.70
2023-02-26T21:42:20.697Z,91.90
2023-02-26T21:44:48.643Z,91.60
2023-02-26T21:47:17.621Z,91.80
2023-02-26T21:49:44.316Z,91.60
2023-02-26T21:52:12.258Z,91.80
2023-02-26T21:54:39.090Z,91.70
2023-02-26T21:57:05.965Z,91.80
2023-02-26T21:59:32.776Z,91.60
2023-02-26T22:01:59.849Z,91.60
2023-02-26T22:04:27.993Z,91.70
2023-02-26T22:06:54.985Z,91.70
2023-02-26T22:09:21.967Z,92.00
2023-02-26T22:11:48.849Z,92.20
2023-02-26T22:14:15.998Z,92.10
2023-02-26T22:16:42.943Z,92.30
2023-02-26T22:19:09.772Z,92.20
2023-02-26T22:21:37.840Z,92.10
2023-02-26T22:24:05.246Z,92.10
2023-02-26T22:26:32.388Z,92.20
2023-02-26T22:28:59.165Z,92.00
2023-02-26T22:31:26.612Z,92.10
2023-02-26T22:33:53.638Z,92.20
2023-02-26T22:36:20.514Z,92.30
2023-02-26T22:38:48.669Z,92.10
2023-02-26T22:41:15.515Z,92.20
2023-02-26T22:43:42.266Z,92.20
2023-02-26T22:46:09.157Z,92.10
2023-02-26T22:48:35.900Z,92.20
2023-02-26T22:51:02.764Z,92.20
2023-02-26T22:53:29.523Z,92.30
2023-02-26T22:55:57.632Z,92.20
2023-02-26T22:58:24.413Z,92.00
2023-02-26T23:00:58.516Z,91.90
2023-02-26T23:03:25.313Z,91.80
2023-02-26T23:05:52.327Z,92.10
2023-02-26T23:08:19.073Z,92.10
2023-02-26T23:10:45.897Z,92.10
2023-02-26T23:13:14.461Z,92.00
2023-02-26T23:15:41.260Z,92.30
2023-02-26T23:18:08.024Z,92.40
2023-02-26T23:20:34.744Z,92.50
2023-02-26T23:23:01.492Z,92.10
2023-02-26T23:25:28.261Z,92.20
2023-02-26T23:27:55.107Z,92.30
2023-02-26T23:30:23.219Z,92.20
2023-02-26T23:32:50.469Z,92.10
2023-02-26T23:35:17.427Z,91.80
2023-02-26T23:37:44.130Z,92.10
2023-02-26T23:40:12.173Z,92.10
2023-02-26T23:42:39.027Z,92.10
2023-02-26T23:45:06.803Z,92.00
2023-02-26T23:47:34.854Z,92.00
2023-02-26T23:50:01.733Z,92.10
2023-02-26T23:52:28.490Z,92.20
2023-02-26T23:54:55.185Z,92.30
2023-02-26T23:57:21.890Z,92.30
2023-02-26T23:59:48.595Z,92.40
